Main page
METAR-TAF:

METAR-TAF

Airports :

Rijeka, Croatia

Rijeka Airport

latitude: 45-13N, longitude: 014-35E, elevation: 85 m

Current weather observation

The report was made 19 minutes ago, at 08:30 UTC
Wind 4 kt from the East/Southeast
Temperature 8°C
Humidity 93%
Pressure 1003 hPa
Visibility 10 km or more
Few clouds at a height of 1000 ft
Scattered clouds at a height of 3000 ft

METAR: LDRI 210830Z 11004KT 9999 FEW010 SCT030 08/07 Q1003

Time: 09:49 (08:49 UTC)

Forecast

The report was made 2 hours and 29 minutes ago, at 06:20 UTC
Forecast valid from 21 at 07 UTC to 22 at 06 UTC
Wind 2 kt from variable directions
Visibility 10 km or more
no clouds below 1500 m and no cumulonimbus
Temporary
from 21 at 07 UTC to 22 at 06 UTC
Wind 8 kt from the Northwest

TAF: LDRI 210620Z 2107/2206 VRB02KT CAVOK TX09/2113Z TN02.2205Z TEMPO 2107/2206 32008KT

Weather observations and forecasts of more than 4000 airports (METAR and TAF reports).

The available stations are represented by yellow and red dots on the map.

Hover mouse over dot to see the name of the station.

Then click to see weather observations and forecasts.

To change the map : click on the green buttons with a black cross to zoom in, on the green button with a dash to zoom out, or on the green arrows for adjacent maps.


METAR-TAF: